• Join FlightAware (Why Join?)
  • Login
  • US Flag 
06:37AM EDT


 

Airport Tracker/Info


-or-


 

Live Flight TrackerFlight Track Log ✈ GLA36K ✈ 09-May-2013 ✈ KDEN - KDIK

Flight Track Log - Related Links

Times and Time Zones

All times are in EDT time to prevent confusion due to time zone crossing. See the GLA36K flight status page for this flight to view local times or setup timezone preferences in your user account.

Time Position Orientation Groundspeed Altitude Reporting Facility
EDT Latitude Longitude Course Direction KTS MPH feet Rate Location/Type
01:34PM 39.9167 -104.6833 27° Northeast 172 198 6,000  Level Denver TRACON
01:35PM 39.9667 -104.6500 27° Northeast 219 252 6,700 780 Climbing Denver TRACON
01:36PM 40.0031 -104.6119 39° Northeast 225 259 7,500 900 Climbing Denver Center
01:37PM 40.0644 -104.5656 30° Northeast 235 270 8,500 1,260 Climbing Denver Center
01:38PM 40.1256 -104.5681 358° North 234 269 10,200 1,440 Climbing Denver Center
01:39PM 40.1903 -104.5836 350° North 221 254 11,500 720 Climbing Denver Center
01:40PM 40.2589 -104.5956 352° North 245 282 11,800 240 Climbing Denver Center
01:41PM 40.3392 -104.5917 North 268 308 12,100 360 Climbing Denver Center
01:42PM 40.4139 -104.5767 North 272 313 12,600 1,020 Climbing Denver Center
01:43PM 40.4903 -104.5611 North 258 297 14,300 1,500 Climbing Denver Center
01:44PM 40.5544 -104.5536 North 235 270 15,800 1,800 Climbing Denver Center
01:45PM 40.6169 -104.5394 10° North 220 253 18,100 1,320 Climbing Denver Center
01:46PM 40.6742 -104.5283 North 208 239 18,600 720 Climbing Denver Center
01:47PM 40.7308 -104.4942 25° Northeast 221 254 19,700 900 Climbing Denver Center
01:48PM 40.7867 -104.4572 27° Northeast 224 258 20,500 900 Climbing Denver Center
01:49PM 40.8522 -104.4039 32° Northeast 236 272 21,600 960 Climbing Denver Center
01:50PM 40.9131 -104.3772 18° North 240 276 22,600 840 Climbing Denver Center
01:51PM 40.9864 -104.3528 14° North 242 278 23,400 720 Climbing Denver Center
01:52PM 41.0464 -104.3297 16° North 238 274 24,200 720 Climbing Denver Center
01:53PM 41.1147 -104.2922 22° Northeast 237 273 25,000 660 Climbing Denver Center
01:54PM 41.1719 -104.2578 24° Northeast 237 273 25,600 720 Climbing Denver Center
01:55PM 41.2400 -104.2239 21° North 233 268 26,500 540 Climbing Denver Center
01:56PM 41.3025 -104.2039 14° North 239 275 26,800 240 Climbing Denver Center
01:57PM 41.3761 -104.1675 20° North 250 288 27,000 60 Climbing Denver Center
01:58PM 41.4414 -104.1300 23° Northeast 263 303 27,000  Level Denver Center
01:59PM 41.5211 -104.0933 19° North 272 313 27,000  Level Denver Center
02:00PM 41.5911 -104.0614 19° North 276 318 27,000  Level Denver Center
02:02PM 41.6733 -104.0219 20° North 280 322 27,000  Level Denver Center
02:03PM 41.7450 -103.9872 20° North 285 328 27,000  Level Denver Center
02:04PM 41.8397 -103.9436 19° North 283 326 27,000  Level Denver Center
02:05PM 41.9111 -103.9119 18° North 284 327 27,000  Level Denver Center
02:06PM 41.9936 -103.8739 19° North 283 326 27,000  Level Denver Center
02:07PM 42.0644 -103.8403 19° North 283 326 27,000  Level Denver Center
02:08PM 42.1469 -103.8017 19° North 281 323 27,000  Level Denver Center
02:09PM 42.2183 -103.7694 18° North 283 326 27,000  Level Denver Center
02:10PM 42.2994 -103.7292 20° North 281 323 27,000  Level Denver Center
02:11PM 42.3697 -103.6975 18° North 279 321 27,000  Level Denver Center
02:12PM 42.4514 -103.6614 18° North 278 320 27,000  Level Denver Center
02:13PM 42.5228 -103.6339 16° North 278 320 27,000  Level Denver Center
02:14PM 42.6047 -103.6014 16° North 277 319 27,000  Level Denver Center
02:15PM 42.6756 -103.5744 16° North 277 319 27,000  Level Denver Center
02:16PM 42.7606 -103.5486 13° North 281 323 27,000  Level Denver Center
02:17PM 42.8325 -103.5258 13° North 278 320 27,000  Level Denver Center
02:18PM 42.9172 -103.4989 13° North 280 322 27,000  Level Denver Center
02:19PM 42.9892 -103.4731 15° North 279 321 27,000  Level Denver Center
02:20PM 43.0622 -103.4458 15° North 283 326 27,000  Level Denver Center
02:21PM 43.1453 -103.4097 18° North 281 323 27,000  Level Denver Center
02:22PM 43.2181 -103.3778 18° North 286 329 27,000  Level Denver Center
02:23PM 43.3000 -103.3361 20° North 283 326 27,000  Level Denver Center
02:24PM 43.3711 -103.2981 21° North 285 328 27,000  Level Denver Center
02:25PM 43.4550 -103.2581 19° North 286 329 27,000  Level Denver Center
02:27PM 43.5281 -103.2228 19° North 288 331 27,000  Level Denver Center
02:28PM 43.6114 -103.1792 21° North 288 331 27,000  Level Denver Center
02:29PM 43.6839 -103.1422 20° North 290 334 27,000  Level Denver Center
02:30PM 43.7683 -103.1039 18° North 287 330 27,000  Level Denver Center
02:31PM 43.8433 -103.0775 14° North 287 330 27,000  Level Denver Center
02:32PM 43.9303 -103.0436 16° North 291 335 27,000  Level Denver Center
02:33PM 44.0072 -103.0125 16° North 293 337 27,000  Level Denver Center
02:34PM 44.0800 -103.0142 359° North 288 331 27,000  Level Denver Center
02:35PM 44.1689 -103.0156 359° North 285 328 27,000  Level Denver Center
02:36PM 44.2444 -103.0075 North 286 329 27,000  Level Denver Center
02:37PM 44.3247 -102.9975 North 289 333 27,000  Level Denver Center
02:38PM 44.4044 -102.9844 North 288 331 27,000  Level Denver Center
02:39PM 44.4994 -102.9703 North 288 331 27,000  Level Denver Center
02:40PM 44.5803 -102.9619 North 287 330 27,000  Level Denver Center
02:41PM 44.6597 -102.9542 North 286 329 27,000  Level Denver Center
02:42PM 44.7406 -102.9458 North 289 333 27,000  Level Denver Center
02:43PM 44.8189 -102.9386 North 285 328 27,000  Level Denver Center
02:44PM 44.9189 -102.9317 North 286 329 27,000  Level Minneapolis Center
02:45PM 45.0150 -102.9242 North 287 330 27,000  Level Minneapolis Center
02:46PM 45.0944 -102.9161 North 286 329 27,000  Level Minneapolis Center
02:47PM 45.1747 -102.9092 North 288 331 27,000  Level Minneapolis Center
02:48PM 45.2550 -102.9033 North 288 331 27,000  Level Minneapolis Center
02:49PM 45.3356 -102.8981 North 289 333 27,000 -240 Level Minneapolis Center
02:50PM 45.4164 -102.8886 North 290 334 26,600 -600 Descending Minneapolis Center
02:52PM 45.5011 -102.8817 North 299 344 25,800 -840 Descending Minneapolis Center
02:53PM 45.5969 -102.8722 North 305 351 24,900 -960 Descending Minneapolis Center
02:54PM 45.6797 -102.8617 North 303 349 23,900 -1,080 Descending Minneapolis Center
02:55PM 45.7631 -102.8547 North 300 345 22,700 -1,140 Descending Minneapolis Center
02:56PM 45.8456 -102.8425 North 300 345 21,600 -1,560 Descending Minneapolis Center
02:57PM 45.9461 -102.8339 North 302 348 19,500 -1,800 Descending Minneapolis Center
02:58PM 46.0317 -102.8303 North 307 353 17,900 -1,500 Descending Minneapolis Center
02:59PM 46.1142 -102.8269 North 302 348 16,500 -1,620 Descending Minneapolis Center
03:00PM 46.1969 -102.8258 North 299 344 14,600 -1,920 Descending Minneapolis Center
03:01PM 46.2833 -102.8297 358° North 306 352 12,600 -2,040 Descending Minneapolis Center
03:02PM 46.3692 -102.8344 358° North 309 356 10,500 -2,220 Descending Minneapolis Center
03:03PM 46.4633 -102.8197 North 295 339 8,100 -2,160 Descending Minneapolis Center
03:04PM 46.5386 -102.7992 11° North 284 327 6,100 -1,200 Descending Minneapolis Center
03:05PM 46.6150 -102.7819 North 283 326 5,700 -420 Descending Minneapolis Center
03:07PM 46.7323 -102.8000 North  Level FlightAware Approximate
03:14PM 46.7833 -102.8000 North  Level FlightAware Approximate
03:15PM 46.7973 -102.8019 North  Level Estimated
03:16PM 46.7973 -102.8019 North  Level Estimated
03:17PM 46.7973 -102.8019 North  Level Estimated